Terminal Aerodrome Forecast
Issued by NWS Omaha/Valley, NE

Home | Current Version | Previous Version | Graphics & Text | Print | Product List | Glossary On
Versions: 1 2 3 4 5 6 7 8 9 10 11 12 13 14 15 16 17 18 19
000
FTUS43 KOAX 200906 AAB
TAFOFK
TAF AMD
KOFK 200906Z 2009/2106 17010KT P6SM SCT012 OVC040 WS020/21040KT
      TEMPO 2009/2012 5SM BR OVC008
     FM201200 17012KT 5SM BR OVC008 WS020/21040KT
      TEMPO 2012/2014 OVC004
     FM201700 27014KT P6SM SCT015 BKN100
     FM201900 30016G24KT P6SM SCT250=

USA.gov is the U.S. government's official web portal to all federal, state and local government web resources and services.